Historyczne dane pomiarowe

Dodano dane terminowe – wersja testowa.

Dane z okresu 1951-2019

Wersja bazy: 1.34 [2019-03-16, lista zmian], aktualizacja planowana na 2019-04-15

Dane meteo z obszaru Polski uzyskane na podstawie danych udostępnionych przez Instytut Meteorologii i Gospodarki Wodnej – Państwowy Instytut Badawczy.

 

Wybierz Datę:    

       

TemperaturaWilgotnośćWiatrCiśnienieOpadyŚniegCzas trwania zjawisk
 Stacja t tx tn tng RH VA  wxwx mslp ppp RRR   cm mm wxwxwxwxwxwxwx
1987-07-08 21.3 29.0 10.3--- 1.7 3.0---- 0.0------------
1987-07-07 19.4 27.0 7.7--- 0.3 1.7---- 0.0------------
1987-07-06 16.8 23.6 5.6--- 0.7 2.0---- 0.0------------
1987-07-05 15.8 21.6 12.5--- 3.3 2.0---- 3.4------------
1987-07-04 17.2 21.9 11.7--- 5.3 1.3---- 0.0------------
1987-07-03 19.5 24.0 16.2--- 6.0 2.7---- 0.0------------
1987-07-02 20.5 27.0 18.1--- 6.7 3.3---- 0.0------------
1987-07-01 22.8 31.8 18.3--- 2.0 3.3---- 0.0------------
1987-06-30 23.0 29.5 16.2--- 4.3 2.0---- 0.0------------
1987-06-29 19.6 26.0 10.5--- 4.7 3.0---- 0.0------------
1987-06-28 17.9 25.0 9.5--- 3.7 3.0---- 0.0------------
1987-06-27 18.4 23.7 15.0--- 5.0 3.0---- 0.0------------
1987-06-26 16.1 24.5 7.0--- 3.0 3.3---- 1.0------------
1987-06-25 14.8 18.6 11.3--- 4.3 4.0---- 0.0------------
1987-06-24 16.1 21.4 11.5--- 4.3 3.0---- 2.2------------
1987-06-23 17.0 21.5 12.6--- 6.0 4.0---- 0.0------------
1987-06-22 18.8 24.4 8.5--- 3.7 3.3---- 0.0------------
1987-06-21 18.0 24.7 7.8--- 2.0 2.0---- 0.0------------
1987-06-20 16.0 23.0 6.1--- 2.0 3.0---- 0.0------------
1987-06-19 12.8 17.2 7.5--- 2.7 3.3---- 2.2------------
1987-06-18 11.8 18.7 2.9--- 3.3 3.0---- 0.1------------
1987-06-17 11.7 16.5 8.3--- 4.7 3.0---- 0.0------------
1987-06-16 17.1 26.5 12.0--- 5.0 3.0---- 1.4------------
1987-06-15 22.3 29.0 14.0--- 6.0 4.0---- 0.0------------
1987-06-14 21.5 28.5 14.7--- 3.7 3.0---- 1.5------------
1987-06-13 20.4 27.0 11.0--- 4.3 2.0---- 0.0------------
1987-06-12 19.6 25.7 10.7--- 2.7 2.0---- 0.0------------
1987-06-11 16.4 22.5 8.7--- 2.7 2.0---- 0.0------------
1987-06-10 16.7 21.0 14.5--- 6.0 1.0---- 0.2------------
1987-06-09 14.9 23.0 11.7--- 6.0 2.0---- 7.5------------
1987-06-08 20.7 27.0 14.7--- 5.3 3.3---- 2.4------------
1987-06-07 17.8 24.6 7.2--- 3.7 2.0---- 4.6------------
1987-06-06 15.8 20.5 12.4--- 5.0 4.0---- 0.0------------
1987-06-05 14.7 18.4 12.5--- 7.7 4.0---- 2.3------------
1987-06-04 13.7 20.0 5.8--- 6.0 2.0---- 2.0------------
1987-06-03 12.5 16.8 7.5--- 5.3 3.0---- 0.0------------
1987-06-02 11.1 16.0 3.6--- 3.7 3.0---- 1.0------------
1987-06-01 9.7 14.5 3.9--- 5.0 3.0---- 0.0------------
1987-05-31 8.0 11.6 2.4--- 5.0 2.0---- 0.0------------
1987-05-30 9.7 14.5 2.4--- 4.3 4.0---- 0.0------------
1987-05-29 11.3 14.0 6.0--- 5.3 3.0---- 0.0------------
1987-05-28 12.9 17.5 7.5--- 6.0 3.0---- 0.0------------
1987-05-27 13.7 21.0 1.4--- 3.3 2.0---- 0.0------------
1987-05-26 10.7 18.0 1.4--- 2.0 3.0---- 0.0------------
1987-05-25 12.6 16.0 9.2--- 3.7 3.0---- 0.0------------
1987-05-24 13.5 19.4 9.2--- 5.3 3.0---- 0.0------------
1987-05-23 11.8 18.4 10.9--- 7.7 4.0---- 0.0------------
1987-05-22 15.9 22.0 10.6--- 7.7 6.0---- 0.0------------
1987-05-21 10.4 15.1 8.9--- 7.0 3.0---- 0.0------------
1987-05-20 14.2 16.5 11.5--- 7.0 2.3---- 6.0------------
1987-05-19 15.5 20.4 10.5--- 6.0 2.0---- 1.5------------
1987-05-18 12.1 16.4 5.8--- 6.3 4.0---- 0.0------------
1987-05-17 10.4 14.9 7.3--- 5.3 3.0---- 3.0------------
1987-05-16 10.5 14.2 6.7--- 7.3 3.3---- 26.3------------
1987-05-15 9.3 16.0 3.3--- 0.7 3.0---- 0.0------------
1987-05-14 9.4 17.0 4.6--- 7.7 3.0---- 18.6------------
1987-05-13 17.1 21.5 13.0--- 5.7 4.3---- 0.0------------
1987-05-12 12.1 18.5 1.9--- 4.3 3.0---- 0.0------------
1987-05-11 11.6 18.5 8.5--- 5.3 4.0---- 1.1------------
1987-05-10 14.5 22.7 3.0--- 2.7 5.0---- 0.0------------
372.8 ms

 

Źródłem pochodzenia danych jest Instytut Meteorologii i Gospodarki Wodnej – Państwowy Instytut Badawczy. Dane Instytutu Meteorologii i Gospodarki Wodnej – Państwowego Instytutu Badawczego zostały przetworzone.

Dane źródłowe można odnaleźć na stronie https://dane.imgw.pl